sensor_id;sensor_type;location;lat;lon;timestamp;P1;durP1;ratioP1;P2;durP2;ratioP2
55684;SDS011;41883;49.544;8.646;2022-12-16T00:04:49;25.33;;;13.25;;
55684;SDS011;41883;49.544;8.646;2022-12-16T00:07:14;25.10;;;13.68;;
55684;SDS011;41883;49.544;8.646;2022-12-16T00:09:39;22.37;;;11.77;;
55684;SDS011;41883;49.544;8.646;2022-12-16T00:12:04;28.30;;;14.77;;
55684;SDS011;41883;49.544;8.646;2022-12-16T00:14:30;24.67;;;13.27;;
55684;SDS011;41883;49.544;8.646;2022-12-16T00:16:55;20.17;;;11.75;;
55684;SDS011;41883;49.544;8.646;2022-12-16T00:19:20;18.20;;;12.07;;
55684;SDS011;41883;49.544;8.646;2022-12-16T00:21:45;20.80;;;11.73;;
55684;SDS011;41883;49.544;8.646;2022-12-16T00:24:10;22.50;;;12.33;;
55684;SDS011;41883;49.544;8.646;2022-12-16T00:26:36;19.87;;;11.80;;
55684;SDS011;41883;49.544;8.646;2022-12-16T00:29:01;19.37;;;11.03;;
55684;SDS011;41883;49.544;8.646;2022-12-16T00:31:29;21.05;;;11.20;;
55684;SDS011;41883;49.544;8.646;2022-12-16T00:33:55;23.15;;;13.00;;
55684;SDS011;41883;49.544;8.646;2022-12-16T00:36:20;22.00;;;13.60;;
55684;SDS011;41883;49.544;8.646;2022-12-16T00:38:45;23.07;;;14.80;;
55684;SDS011;41883;49.544;8.646;2022-12-16T00:43:35;23.88;;;12.98;;
55684;SDS011;41883;49.544;8.646;2022-12-16T00:46:01;24.43;;;12.97;;
55684;SDS011;41883;49.544;8.646;2022-12-16T00:48:26;24.83;;;12.93;;
55684;SDS011;41883;49.544;8.646;2022-12-16T00:55:41;23.38;;;11.85;;
55684;SDS011;41883;49.544;8.646;2022-12-16T00:58:07;23.23;;;14.37;;
55684;SDS011;41883;49.544;8.646;2022-12-16T01:00:32;23.30;;;13.38;;
55684;SDS011;41883;49.544;8.646;2022-12-16T01:02:57;23.93;;;12.50;;
55684;SDS011;41883;49.544;8.646;2022-12-16T01:05:23;22.70;;;11.83;;
55684;SDS011;41883;49.544;8.646;2022-12-16T01:07:51;22.88;;;11.60;;
55684;SDS011;41883;49.544;8.646;2022-12-16T01:10:16;22.67;;;11.90;;
55684;SDS011;41883;49.544;8.646;2022-12-16T01:12:41;21.57;;;12.07;;
55684;SDS011;41883;49.544;8.646;2022-12-16T01:15:07;22.83;;;12.20;;
55684;SDS011;41883;49.544;8.646;2022-12-16T01:17:33;22.77;;;12.05;;
55684;SDS011;41883;49.544;8.646;2022-12-16T01:19:59;23.17;;;12.48;;
55684;SDS011;41883;49.544;8.646;2022-12-16T01:22:25;22.88;;;12.00;;
55684;SDS011;41883;49.544;8.646;2022-12-16T01:24:50;19.52;;;10.63;;
55684;SDS011;41883;49.544;8.646;2022-12-16T01:27:15;25.35;;;12.10;;
55684;SDS011;41883;49.544;8.646;2022-12-16T01:29:41;23.02;;;12.27;;
55684;SDS011;41883;49.544;8.646;2022-12-16T01:32:07;23.13;;;12.13;;
55684;SDS011;41883;49.544;8.646;2022-12-16T01:34:32;24.45;;;13.00;;
55684;SDS011;41883;49.544;8.646;2022-12-16T01:36:58;20.75;;;13.20;;
55684;SDS011;41883;49.544;8.646;2022-12-16T01:39:23;21.93;;;12.40;;
55684;SDS011;41883;49.544;8.646;2022-12-16T01:41:50;23.52;;;11.75;;
55684;SDS011;41883;49.544;8.646;2022-12-16T01:44:19;22.85;;;12.43;;
55684;SDS011;41883;49.544;8.646;2022-12-16T01:46:48;23.98;;;12.20;;
55684;SDS011;41883;49.544;8.646;2022-12-16T01:49:22;24.15;;;12.90;;
55684;SDS011;41883;49.544;8.646;2022-12-16T01:51:48;22.48;;;11.80;;
55684;SDS011;41883;49.544;8.646;2022-12-16T01:54:16;23.15;;;11.50;;
55684;SDS011;41883;49.544;8.646;2022-12-16T01:56:50;21.73;;;11.55;;
55684;SDS011;41883;49.544;8.646;2022-12-16T01:59:17;23.67;;;11.88;;
55684;SDS011;41883;49.544;8.646;2022-12-16T02:01:44;19.70;;;10.63;;
55684;SDS011;41883;49.544;8.646;2022-12-16T02:04:09;18.92;;;10.18;;
55684;SDS011;41883;49.544;8.646;2022-12-16T02:06:34;21.20;;;11.13;;
55684;SDS011;41883;49.544;8.646;2022-12-16T02:09:00;17.20;;;11.80;;
55684;SDS011;41883;49.544;8.646;2022-12-16T02:11:39;17.20;;;10.30;;
55684;SDS011;41883;49.544;8.646;2022-12-16T02:14:35;18.70;;;10.73;;
55684;SDS011;41883;49.544;8.646;2022-12-16T02:16:58;18.92;;;10.15;;
55684;SDS011;41883;49.544;8.646;2022-12-16T02:22:17;18.45;;;9.65;;
55684;SDS011;41883;49.544;8.646;2022-12-16T02:24:51;19.10;;;10.07;;
55684;SDS011;41883;49.544;8.646;2022-12-16T02:27:37;20.67;;;11.23;;
55684;SDS011;41883;49.544;8.646;2022-12-16T02:30:05;20.65;;;11.60;;
55684;SDS011;41883;49.544;8.646;2022-12-16T02:32:35;18.85;;;10.63;;
55684;SDS011;41883;49.544;8.646;2022-12-16T02:35:20;20.48;;;11.02;;
55684;SDS011;41883;49.544;8.646;2022-12-16T02:38:01;19.25;;;10.55;;
55684;SDS011;41883;49.544;8.646;2022-12-16T02:40:49;18.85;;;10.85;;
55684;SDS011;41883;49.544;8.646;2022-12-16T02:43:16;24.02;;;11.35;;
55684;SDS011;41883;49.544;8.646;2022-12-16T02:48:11;20.08;;;10.75;;
55684;SDS011;41883;49.544;8.646;2022-12-16T02:50:41;21.00;;;10.93;;
55684;SDS011;41883;49.544;8.646;2022-12-16T02:53:08;19.38;;;9.60;;
55684;SDS011;41883;49.544;8.646;2022-12-16T02:55:58;22.75;;;11.85;;
55684;SDS011;41883;49.544;8.646;2022-12-16T03:03:34;20.13;;;9.90;;
55684;SDS011;41883;49.544;8.646;2022-12-16T03:06:01;16.95;;;9.00;;
55684;SDS011;41883;49.544;8.646;2022-12-16T03:08:34;20.85;;;11.05;;
55684;SDS011;41883;49.544;8.646;2022-12-16T03:11:02;16.67;;;9.77;;
55684;SDS011;41883;49.544;8.646;2022-12-16T03:13:38;17.13;;;8.80;;
55684;SDS011;41883;49.544;8.646;2022-12-16T03:16:06;16.58;;;9.43;;
55684;SDS011;41883;49.544;8.646;2022-12-16T03:18:33;19.95;;;10.65;;
55684;SDS011;41883;49.544;8.646;2022-12-16T03:21:00;20.23;;;10.10;;
55684;SDS011;41883;49.544;8.646;2022-12-16T03:23:32;23.02;;;11.68;;
55684;SDS011;41883;49.544;8.646;2022-12-16T03:26:05;20.63;;;10.80;;
55684;SDS011;41883;49.544;8.646;2022-12-16T03:28:51;19.05;;;10.27;;
55684;SDS011;41883;49.544;8.646;2022-12-16T03:34:10;18.17;;;9.95;;
55684;SDS011;41883;49.544;8.646;2022-12-16T03:36:36;19.55;;;10.63;;
55684;SDS011;41883;49.544;8.646;2022-12-16T03:39:03;19.02;;;10.80;;
55684;SDS011;41883;49.544;8.646;2022-12-16T03:41:30;21.02;;;11.00;;
55684;SDS011;41883;49.544;8.646;2022-12-16T03:43:56;22.73;;;11.25;;
55684;SDS011;41883;49.544;8.646;2022-12-16T03:46:22;24.80;;;12.45;;
55684;SDS011;41883;49.544;8.646;2022-12-16T03:48:48;21.97;;;10.97;;
55684;SDS011;41883;49.544;8.646;2022-12-16T03:51:13;24.67;;;12.10;;
55684;SDS011;41883;49.544;8.646;2022-12-16T03:53:39;20.77;;;10.75;;
55684;SDS011;41883;49.544;8.646;2022-12-16T03:56:05;20.70;;;9.80;;
55684;SDS011;41883;49.544;8.646;2022-12-16T03:58:31;19.73;;;9.70;;
55684;SDS011;41883;49.544;8.646;2022-12-16T04:00:56;20.65;;;10.48;;
55684;SDS011;41883;49.544;8.646;2022-12-16T04:03:25;19.70;;;9.80;;
55684;SDS011;41883;49.544;8.646;2022-12-16T04:05:56;16.60;;;8.85;;
55684;SDS011;41883;49.544;8.646;2022-12-16T04:10:52;17.27;;;8.93;;
55684;SDS011;41883;49.544;8.646;2022-12-16T04:13:38;19.58;;;9.38;;
55684;SDS011;41883;49.544;8.646;2022-12-16T04:16:22;17.95;;;9.10;;
55684;SDS011;41883;49.544;8.646;2022-12-16T04:19:10;18.08;;;9.73;;
55684;SDS011;41883;49.544;8.646;2022-12-16T04:21:58;22.23;;;11.50;;
55684;SDS011;41883;49.544;8.646;2022-12-16T04:24:42;21.70;;;10.32;;
55684;SDS011;41883;49.544;8.646;2022-12-16T04:27:10;18.70;;;9.57;;
55684;SDS011;41883;49.544;8.646;2022-12-16T04:29:53;20.58;;;11.13;;
55684;SDS011;41883;49.544;8.646;2022-12-16T04:32:40;22.10;;;10.50;;
55684;SDS011;41883;49.544;8.646;2022-12-16T04:35:24;22.42;;;10.77;;
55684;SDS011;41883;49.544;8.646;2022-12-16T04:38:07;20.25;;;10.43;;
55684;SDS011;41883;49.544;8.646;2022-12-16T04:40:52;19.73;;;10.60;;
55684;SDS011;41883;49.544;8.646;2022-12-16T04:43:35;18.83;;;9.98;;
55684;SDS011;41883;49.544;8.646;2022-12-16T04:46:22;19.05;;;10.50;;
55684;SDS011;41883;49.544;8.646;2022-12-16T04:49:09;18.30;;;9.80;;
55684;SDS011;41883;49.544;8.646;2022-12-16T04:51:53;19.92;;;9.80;;
55684;SDS011;41883;49.544;8.646;2022-12-16T04:54:36;22.20;;;10.75;;
55684;SDS011;41883;49.544;8.646;2022-12-16T04:57:20;19.33;;;10.60;;
55684;SDS011;41883;49.544;8.646;2022-12-16T05:00:07;17.75;;;9.55;;
55684;SDS011;41883;49.544;8.646;2022-12-16T05:02:51;17.88;;;9.10;;
55684;SDS011;41883;49.544;8.646;2022-12-16T05:05:35;20.65;;;10.20;;
55684;SDS011;41883;49.544;8.646;2022-12-16T05:08:19;20.65;;;10.15;;
55684;SDS011;41883;49.544;8.646;2022-12-16T05:11:03;19.50;;;10.32;;
55684;SDS011;41883;49.544;8.646;2022-12-16T05:13:47;18.98;;;8.98;;
55684;SDS011;41883;49.544;8.646;2022-12-16T05:16:31;18.25;;;9.18;;
55684;SDS011;41883;49.544;8.646;2022-12-16T05:19:15;21.02;;;10.02;;
55684;SDS011;41883;49.544;8.646;2022-12-16T05:22:01;19.00;;;9.77;;
55684;SDS011;41883;49.544;8.646;2022-12-16T05:24:48;22.67;;;11.38;;
55684;SDS011;41883;49.544;8.646;2022-12-16T05:27:39;26.15;;;11.95;;
55684;SDS011;41883;49.544;8.646;2022-12-16T05:30:23;18.10;;;9.70;;
55684;SDS011;41883;49.544;8.646;2022-12-16T05:33:07;21.38;;;9.70;;
55684;SDS011;41883;49.544;8.646;2022-12-16T05:35:51;19.35;;;9.85;;
55684;SDS011;41883;49.544;8.646;2022-12-16T05:38:34;22.85;;;11.05;;
55684;SDS011;41883;49.544;8.646;2022-12-16T05:41:18;19.90;;;10.07;;
55684;SDS011;41883;49.544;8.646;2022-12-16T05:44:02;22.35;;;11.18;;
55684;SDS011;41883;49.544;8.646;2022-12-16T05:46:46;22.05;;;10.93;;
55684;SDS011;41883;49.544;8.646;2022-12-16T05:49:30;24.98;;;12.13;;
55684;SDS011;41883;49.544;8.646;2022-12-16T05:52:13;23.63;;;12.88;;
55684;SDS011;41883;49.544;8.646;2022-12-16T05:54:57;25.63;;;12.15;;
55684;SDS011;41883;49.544;8.646;2022-12-16T05:57:41;22.08;;;11.57;;
55684;SDS011;41883;49.544;8.646;2022-12-16T06:00:25;26.23;;;12.38;;
55684;SDS011;41883;49.544;8.646;2022-12-16T06:03:09;26.52;;;11.98;;
55684;SDS011;41883;49.544;8.646;2022-12-16T06:05:53;26.35;;;12.30;;
55684;SDS011;41883;49.544;8.646;2022-12-16T06:11:20;23.92;;;11.68;;
55684;SDS011;41883;49.544;8.646;2022-12-16T06:14:04;23.92;;;14.30;;
55684;SDS011;41883;49.544;8.646;2022-12-16T06:16:48;21.17;;;12.80;;
55684;SDS011;41883;49.544;8.646;2022-12-16T06:19:32;25.33;;;12.73;;
55684;SDS011;41883;49.544;8.646;2022-12-16T06:22:18;22.25;;;11.65;;
55684;SDS011;41883;49.544;8.646;2022-12-16T06:25:03;24.20;;;12.50;;
55684;SDS011;41883;49.544;8.646;2022-12-16T06:28:06;25.13;;;12.38;;
55684;SDS011;41883;49.544;8.646;2022-12-16T06:30:50;26.08;;;12.90;;
55684;SDS011;41883;49.544;8.646;2022-12-16T06:33:34;28.73;;;13.85;;
55684;SDS011;41883;49.544;8.646;2022-12-16T06:36:18;28.65;;;13.95;;
55684;SDS011;41883;49.544;8.646;2022-12-16T06:39:02;24.45;;;12.30;;
55684;SDS011;41883;49.544;8.646;2022-12-16T06:41:47;23.90;;;12.30;;
55684;SDS011;41883;49.544;8.646;2022-12-16T06:44:31;19.42;;;10.88;;
55684;SDS011;41883;49.544;8.646;2022-12-16T06:47:15;24.60;;;11.73;;
55684;SDS011;41883;49.544;8.646;2022-12-16T06:49:58;24.83;;;11.45;;
55684;SDS011;41883;49.544;8.646;2022-12-16T06:52:42;26.88;;;12.43;;
55684;SDS011;41883;49.544;8.646;2022-12-16T06:55:27;21.80;;;12.10;;
55684;SDS011;41883;49.544;8.646;2022-12-16T06:58:11;26.73;;;13.02;;
55684;SDS011;41883;49.544;8.646;2022-12-16T07:00:55;29.05;;;12.80;;
55684;SDS011;41883;49.544;8.646;2022-12-16T07:03:38;26.15;;;11.95;;
55684;SDS011;41883;49.544;8.646;2022-12-16T07:06:22;23.23;;;11.10;;
55684;SDS011;41883;49.544;8.646;2022-12-16T07:09:06;24.17;;;11.10;;
55684;SDS011;41883;49.544;8.646;2022-12-16T07:11:50;21.75;;;10.85;;
55684;SDS011;41883;49.544;8.646;2022-12-16T07:14:34;20.98;;;9.98;;
55684;SDS011;41883;49.544;8.646;2022-12-16T07:17:18;19.80;;;9.93;;
55684;SDS011;41883;49.544;8.646;2022-12-16T07:20:02;20.13;;;10.30;;
55684;SDS011;41883;49.544;8.646;2022-12-16T07:22:46;24.92;;;12.27;;
55684;SDS011;41883;49.544;8.646;2022-12-16T07:25:30;31.35;;;15.00;;
55684;SDS011;41883;49.544;8.646;2022-12-16T07:28:13;24.20;;;14.20;;
55684;SDS011;41883;49.544;8.646;2022-12-16T07:30:57;30.75;;;15.40;;
55684;SDS011;41883;49.544;8.646;2022-12-16T07:33:41;40.25;;;17.35;;
55684;SDS011;41883;49.544;8.646;2022-12-16T07:36:25;42.65;;;19.65;;
55684;SDS011;41883;49.544;8.646;2022-12-16T07:39:08;39.47;;;17.80;;
55684;SDS011;41883;49.544;8.646;2022-12-16T07:41:55;30.88;;;15.00;;
55684;SDS011;41883;49.544;8.646;2022-12-16T07:44:39;33.13;;;15.50;;
55684;SDS011;41883;49.544;8.646;2022-12-16T07:47:23;30.98;;;14.77;;
55684;SDS011;41883;49.544;8.646;2022-12-16T07:50:07;31.98;;;14.25;;
55684;SDS011;41883;49.544;8.646;2022-12-16T07:52:57;27.10;;;13.88;;
55684;SDS011;41883;49.544;8.646;2022-12-16T07:55:41;27.48;;;13.68;;
55684;SDS011;41883;49.544;8.646;2022-12-16T07:58:25;24.92;;;12.93;;
55684;SDS011;41883;49.544;8.646;2022-12-16T08:01:09;29.42;;;14.50;;
55684;SDS011;41883;49.544;8.646;2022-12-16T08:03:53;28.55;;;13.95;;
55684;SDS011;41883;49.544;8.646;2022-12-16T08:06:37;27.02;;;13.85;;
55684;SDS011;41883;49.544;8.646;2022-12-16T08:09:21;25.25;;;13.10;;
55684;SDS011;41883;49.544;8.646;2022-12-16T08:12:04;24.38;;;11.93;;
55684;SDS011;41883;49.544;8.646;2022-12-16T08:14:48;22.05;;;11.35;;
55684;SDS011;41883;49.544;8.646;2022-12-16T08:17:32;23.80;;;11.88;;
55684;SDS011;41883;49.544;8.646;2022-12-16T08:20:16;22.42;;;11.38;;
55684;SDS011;41883;49.544;8.646;2022-12-16T08:23:00;19.15;;;10.68;;
55684;SDS011;41883;49.544;8.646;2022-12-16T08:25:44;24.77;;;12.95;;
55684;SDS011;41883;49.544;8.646;2022-12-16T08:28:27;24.77;;;14.38;;
55684;SDS011;41883;49.544;8.646;2022-12-16T08:31:11;28.05;;;14.55;;
55684;SDS011;41883;49.544;8.646;2022-12-16T08:33:55;27.60;;;14.43;;
55684;SDS011;41883;49.544;8.646;2022-12-16T08:36:39;28.85;;;14.25;;
55684;SDS011;41883;49.544;8.646;2022-12-16T08:39:22;31.20;;;15.95;;
55684;SDS011;41883;49.544;8.646;2022-12-16T08:42:06;28.42;;;14.18;;
55684;SDS011;41883;49.544;8.646;2022-12-16T08:44:50;28.63;;;14.43;;
55684;SDS011;41883;49.544;8.646;2022-12-16T08:47:34;24.77;;;14.57;;
55684;SDS011;41883;49.544;8.646;2022-12-16T08:50:18;26.10;;;13.32;;
55684;SDS011;41883;49.544;8.646;2022-12-16T08:53:02;27.10;;;14.23;;
55684;SDS011;41883;49.544;8.646;2022-12-16T08:55:45;27.95;;;13.50;;
55684;SDS011;41883;49.544;8.646;2022-12-16T08:58:29;32.47;;;14.80;;
55684;SDS011;41883;49.544;8.646;2022-12-16T09:01:13;28.15;;;13.52;;
55684;SDS011;41883;49.544;8.646;2022-12-16T09:03:57;26.02;;;14.35;;
55684;SDS011;41883;49.544;8.646;2022-12-16T09:06:41;26.10;;;13.77;;
55684;SDS011;41883;49.544;8.646;2022-12-16T09:09:25;23.25;;;12.38;;
55684;SDS011;41883;49.544;8.646;2022-12-16T09:12:09;26.13;;;13.60;;
55684;SDS011;41883;49.544;8.646;2022-12-16T09:14:52;29.55;;;14.90;;
55684;SDS011;41883;49.544;8.646;2022-12-16T09:17:36;27.05;;;14.57;;
55684;SDS011;41883;49.544;8.646;2022-12-16T09:20:20;26.02;;;14.45;;
55684;SDS011;41883;49.544;8.646;2022-12-16T09:23:04;24.95;;;13.07;;
55684;SDS011;41883;49.544;8.646;2022-12-16T09:25:48;22.55;;;12.32;;
55684;SDS011;41883;49.544;8.646;2022-12-16T09:28:32;24.35;;;12.85;;
55684;SDS011;41883;49.544;8.646;2022-12-16T09:31:15;28.23;;;13.48;;
55684;SDS011;41883;49.544;8.646;2022-12-16T09:33:59;23.17;;;12.48;;
55684;SDS011;41883;49.544;8.646;2022-12-16T09:36:43;25.23;;;13.93;;
55684;SDS011;41883;49.544;8.646;2022-12-16T09:39:27;24.10;;;12.55;;
55684;SDS011;41883;49.544;8.646;2022-12-16T09:42:34;24.27;;;13.95;;
55684;SDS011;41883;49.544;8.646;2022-12-16T09:48:23;25.77;;;13.30;;
55684;SDS011;41883;49.544;8.646;2022-12-16T09:51:10;24.37;;;12.53;;
55684;SDS011;41883;49.544;8.646;2022-12-16T09:54:11;19.35;;;10.82;;
55684;SDS011;41883;49.544;8.646;2022-12-16T09:56:58;21.25;;;11.90;;
55684;SDS011;41883;49.544;8.646;2022-12-16T09:59:42;22.05;;;11.82;;
55684;SDS011;41883;49.544;8.646;2022-12-16T10:02:30;23.05;;;13.38;;
55684;SDS011;41883;49.544;8.646;2022-12-16T10:05:14;26.25;;;13.63;;
55684;SDS011;41883;49.544;8.646;2022-12-16T10:08:17;23.40;;;12.43;;
55684;SDS011;41883;49.544;8.646;2022-12-16T10:11:46;22.30;;;11.90;;
55684;SDS011;41883;49.544;8.646;2022-12-16T10:14:12;21.88;;;11.90;;
55684;SDS011;41883;49.544;8.646;2022-12-16T10:17:17;22.90;;;11.95;;
55684;SDS011;41883;49.544;8.646;2022-12-16T10:20:12;19.83;;;12.40;;
55684;SDS011;41883;49.544;8.646;2022-12-16T10:23:02;23.02;;;12.48;;
55684;SDS011;41883;49.544;8.646;2022-12-16T10:25:48;24.02;;;12.70;;
55684;SDS011;41883;49.544;8.646;2022-12-16T10:28:53;23.45;;;12.90;;
55684;SDS011;41883;49.544;8.646;2022-12-16T10:31:40;19.92;;;11.82;;
55684;SDS011;41883;49.544;8.646;2022-12-16T10:34:25;23.55;;;12.95;;
55684;SDS011;41883;49.544;8.646;2022-12-16T10:37:15;20.77;;;12.68;;
55684;SDS011;41883;49.544;8.646;2022-12-16T10:40:01;19.20;;;11.48;;
55684;SDS011;41883;49.544;8.646;2022-12-16T10:42:50;20.23;;;11.45;;
55684;SDS011;41883;49.544;8.646;2022-12-16T10:45:39;18.60;;;10.70;;
55684;SDS011;41883;49.544;8.646;2022-12-16T10:48:25;24.95;;;13.75;;
55684;SDS011;41883;49.544;8.646;2022-12-16T10:51:12;22.65;;;12.95;;
55684;SDS011;41883;49.544;8.646;2022-12-16T10:53:58;20.33;;;12.32;;
55684;SDS011;41883;49.544;8.646;2022-12-16T10:56:54;21.52;;;11.55;;
55684;SDS011;41883;49.544;8.646;2022-12-16T10:59:40;22.20;;;12.50;;
55684;SDS011;41883;49.544;8.646;2022-12-16T11:02:25;24.92;;;13.48;;
55684;SDS011;41883;49.544;8.646;2022-12-16T11:05:31;19.80;;;11.73;;
55684;SDS011;41883;49.544;8.646;2022-12-16T11:08:22;23.02;;;12.82;;
55684;SDS011;41883;49.544;8.646;2022-12-16T11:17:15;24.00;;;12.75;;
55684;SDS011;41883;49.544;8.646;2022-12-16T11:23:12;21.00;;;11.88;;
55684;SDS011;41883;49.544;8.646;2022-12-16T11:26:06;24.45;;;12.90;;
55684;SDS011;41883;49.544;8.646;2022-12-16T11:29:33;20.75;;;11.82;;
55684;SDS011;41883;49.544;8.646;2022-12-16T11:34:54;19.45;;;10.85;;
55684;SDS011;41883;49.544;8.646;2022-12-16T11:37:39;20.17;;;11.60;;
55684;SDS011;41883;49.544;8.646;2022-12-16T11:40:23;21.98;;;11.98;;
55684;SDS011;41883;49.544;8.646;2022-12-16T11:43:07;19.35;;;11.88;;
55684;SDS011;41883;49.544;8.646;2022-12-16T11:51:23;17.45;;;10.15;;
55684;SDS011;41883;49.544;8.646;2022-12-16T11:54:14;17.02;;;10.50;;
55684;SDS011;41883;49.544;8.646;2022-12-16T11:56:59;18.02;;;10.68;;
55684;SDS011;41883;49.544;8.646;2022-12-16T11:59:49;18.60;;;10.80;;
55684;SDS011;41883;49.544;8.646;2022-12-16T12:02:36;17.15;;;10.55;;
55684;SDS011;41883;49.544;8.646;2022-12-16T12:05:27;16.23;;;10.45;;
55684;SDS011;41883;49.544;8.646;2022-12-16T12:08:17;17.50;;;10.70;;
55684;SDS011;41883;49.544;8.646;2022-12-16T12:11:09;18.40;;;11.00;;
55684;SDS011;41883;49.544;8.646;2022-12-16T12:14:13;18.70;;;11.13;;
55684;SDS011;41883;49.544;8.646;2022-12-16T12:17:11;17.58;;;9.57;;
55684;SDS011;41883;49.544;8.646;2022-12-16T12:20:06;16.10;;;9.45;;
55684;SDS011;41883;49.544;8.646;2022-12-16T12:23:01;16.20;;;9.98;;
55684;SDS011;41883;49.544;8.646;2022-12-16T12:25:50;18.58;;;10.45;;
55684;SDS011;41883;49.544;8.646;2022-12-16T12:31:24;15.77;;;9.90;;
55684;SDS011;41883;49.544;8.646;2022-12-16T12:34:16;17.33;;;10.13;;
55684;SDS011;41883;49.544;8.646;2022-12-16T12:38:03;15.88;;;9.50;;
55684;SDS011;41883;49.544;8.646;2022-12-16T12:40:18;18.55;;;9.57;;
55684;SDS011;41883;49.544;8.646;2022-12-16T12:43:05;17.20;;;9.82;;
55684;SDS011;41883;49.544;8.646;2022-12-16T12:51:57;18.13;;;9.88;;
55684;SDS011;41883;49.544;8.646;2022-12-16T12:57:25;17.55;;;10.43;;
55684;SDS011;41883;49.544;8.646;2022-12-16T13:00:16;15.43;;;10.05;;
55684;SDS011;41883;49.544;8.646;2022-12-16T13:03:03;15.80;;;9.55;;
55684;SDS011;41883;49.544;8.646;2022-12-16T13:05:48;13.25;;;8.98;;
55684;SDS011;41883;49.544;8.646;2022-12-16T13:11:16;15.15;;;8.90;;
55684;SDS011;41883;49.544;8.646;2022-12-16T13:14:00;14.98;;;9.05;;
55684;SDS011;41883;49.544;8.646;2022-12-16T13:22:28;14.38;;;8.75;;
55684;SDS011;41883;49.544;8.646;2022-12-16T13:25:28;16.10;;;8.98;;
55684;SDS011;41883;49.544;8.646;2022-12-16T13:28:19;15.75;;;8.70;;
55684;SDS011;41883;49.544;8.646;2022-12-16T13:31:03;13.43;;;8.73;;
55684;SDS011;41883;49.544;8.646;2022-12-16T13:33:51;12.05;;;7.90;;
55684;SDS011;41883;49.544;8.646;2022-12-16T13:36:41;12.27;;;7.28;;
55684;SDS011;41883;49.544;8.646;2022-12-16T13:39:27;13.38;;;8.10;;
55684;SDS011;41883;49.544;8.646;2022-12-16T13:45:15;12.65;;;7.60;;
55684;SDS011;41883;49.544;8.646;2022-12-16T13:48:00;14.38;;;8.93;;
55684;SDS011;41883;49.544;8.646;2022-12-16T13:50:45;12.73;;;8.07;;
55684;SDS011;41883;49.544;8.646;2022-12-16T13:53:30;12.63;;;7.28;;
55684;SDS011;41883;49.544;8.646;2022-12-16T13:56:17;14.68;;;8.50;;
55684;SDS011;41883;49.544;8.646;2022-12-16T13:59:07;14.85;;;8.85;;
55684;SDS011;41883;49.544;8.646;2022-12-16T14:01:57;13.90;;;9.10;;
55684;SDS011;41883;49.544;8.646;2022-12-16T14:04:48;14.05;;;8.60;;
55684;SDS011;41883;49.544;8.646;2022-12-16T14:07:34;13.13;;;8.25;;
55684;SDS011;41883;49.544;8.646;2022-12-16T14:10:30;14.88;;;8.98;;
55684;SDS011;41883;49.544;8.646;2022-12-16T14:13:32;13.15;;;7.97;;
55684;SDS011;41883;49.544;8.646;2022-12-16T14:16:20;14.40;;;8.38;;
55684;SDS011;41883;49.544;8.646;2022-12-16T14:21:53;14.40;;;8.48;;
55684;SDS011;41883;49.544;8.646;2022-12-16T14:24:41;14.30;;;9.40;;
55684;SDS011;41883;49.544;8.646;2022-12-16T14:27:25;15.60;;;9.82;;
55684;SDS011;41883;49.544;8.646;2022-12-16T14:30:17;15.80;;;9.35;;
55684;SDS011;41883;49.544;8.646;2022-12-16T14:36:22;15.52;;;8.98;;
55684;SDS011;41883;49.544;8.646;2022-12-16T14:39:10;14.82;;;9.32;;
55684;SDS011;41883;49.544;8.646;2022-12-16T14:41:54;15.52;;;8.98;;
55684;SDS011;41883;49.544;8.646;2022-12-16T14:44:38;14.10;;;8.90;;
55684;SDS011;41883;49.544;8.646;2022-12-16T14:47:23;14.30;;;9.50;;
55684;SDS011;41883;49.544;8.646;2022-12-16T14:50:17;15.23;;;9.85;;
55684;SDS011;41883;49.544;8.646;2022-12-16T14:53:11;18.13;;;10.57;;
55684;SDS011;41883;49.544;8.646;2022-12-16T14:56:07;14.40;;;8.65;;
55684;SDS011;41883;49.544;8.646;2022-12-16T14:59:05;12.20;;;7.97;;
55684;SDS011;41883;49.544;8.646;2022-12-16T15:01:49;15.40;;;9.10;;
55684;SDS011;41883;49.544;8.646;2022-12-16T15:04:46;13.40;;;8.05;;
55684;SDS011;41883;49.544;8.646;2022-12-16T15:07:32;10.90;;;6.90;;
55684;SDS011;41883;49.544;8.646;2022-12-16T15:10:17;10.52;;;6.85;;
55684;SDS011;41883;49.544;8.646;2022-12-16T15:13:01;10.20;;;6.15;;
55684;SDS011;41883;49.544;8.646;2022-12-16T15:15:45;10.13;;;6.18;;
55684;SDS011;41883;49.544;8.646;2022-12-16T15:18:31;13.90;;;8.00;;
55684;SDS011;41883;49.544;8.646;2022-12-16T15:21:16;15.77;;;8.57;;
55684;SDS011;41883;49.544;8.646;2022-12-16T15:24:00;15.60;;;8.65;;
55684;SDS011;41883;49.544;8.646;2022-12-16T15:26:44;12.63;;;7.85;;
55684;SDS011;41883;49.544;8.646;2022-12-16T15:35:08;12.00;;;7.53;;
55684;SDS011;41883;49.544;8.646;2022-12-16T15:38:00;11.18;;;6.75;;
55684;SDS011;41883;49.544;8.646;2022-12-16T15:40:43;10.57;;;6.88;;
55684;SDS011;41883;49.544;8.646;2022-12-16T15:43:32;11.88;;;6.95;;
55684;SDS011;41883;49.544;8.646;2022-12-16T15:46:29;12.93;;;7.50;;
55684;SDS011;41883;49.544;8.646;2022-12-16T15:49:15;11.13;;;6.70;;
55684;SDS011;41883;49.544;8.646;2022-12-16T15:52:00;12.00;;;6.70;;
55684;SDS011;41883;49.544;8.646;2022-12-16T15:54:48;15.20;;;9.13;;
55684;SDS011;41883;49.544;8.646;2022-12-16T15:57:33;15.27;;;9.07;;
55684;SDS011;41883;49.544;8.646;2022-12-16T16:00:22;17.13;;;9.55;;
55684;SDS011;41883;49.544;8.646;2022-12-16T16:06:22;14.57;;;8.48;;
55684;SDS011;41883;49.544;8.646;2022-12-16T16:09:15;16.38;;;9.13;;
55684;SDS011;41883;49.544;8.646;2022-12-16T16:12:02;17.58;;;9.35;;
55684;SDS011;41883;49.544;8.646;2022-12-16T16:14:46;20.48;;;10.85;;
55684;SDS011;41883;49.544;8.646;2022-12-16T16:17:30;17.83;;;9.43;;
55684;SDS011;41883;49.544;8.646;2022-12-16T16:20:14;16.63;;;8.55;;
55684;SDS011;41883;49.544;8.646;2022-12-16T16:22:58;15.30;;;8.13;;
55684;SDS011;41883;49.544;8.646;2022-12-16T16:25:42;16.58;;;8.85;;
55684;SDS011;41883;49.544;8.646;2022-12-16T16:28:25;20.33;;;10.18;;
55684;SDS011;41883;49.544;8.646;2022-12-16T16:31:09;26.58;;;13.70;;
55684;SDS011;41883;49.544;8.646;2022-12-16T16:33:53;27.15;;;14.38;;
55684;SDS011;41883;49.544;8.646;2022-12-16T16:36:37;35.10;;;18.40;;
55684;SDS011;41883;49.544;8.646;2022-12-16T16:39:21;31.88;;;16.58;;
55684;SDS011;41883;49.544;8.646;2022-12-16T16:42:04;29.35;;;14.30;;
55684;SDS011;41883;49.544;8.646;2022-12-16T16:44:48;23.40;;;12.70;;
55684;SDS011;41883;49.544;8.646;2022-12-16T16:47:32;25.58;;;13.40;;
55684;SDS011;41883;49.544;8.646;2022-12-16T16:50:16;23.92;;;12.90;;
55684;SDS011;41883;49.544;8.646;2022-12-16T16:52:59;24.58;;;13.38;;
55684;SDS011;41883;49.544;8.646;2022-12-16T16:55:43;21.23;;;12.50;;
55684;SDS011;41883;49.544;8.646;2022-12-16T16:58:28;19.08;;;11.10;;
55684;SDS011;41883;49.544;8.646;2022-12-16T17:01:13;19.38;;;10.85;;
55684;SDS011;41883;49.544;8.646;2022-12-16T17:03:57;16.80;;;9.90;;
55684;SDS011;41883;49.544;8.646;2022-12-16T17:06:41;20.00;;;10.57;;
55684;SDS011;41883;49.544;8.646;2022-12-16T17:09:25;19.08;;;10.88;;
55684;SDS011;41883;49.544;8.646;2022-12-16T17:12:30;19.08;;;10.93;;
55684;SDS011;41883;49.544;8.646;2022-12-16T17:17:56;23.65;;;12.82;;
55684;SDS011;41883;49.544;8.646;2022-12-16T17:20:40;25.67;;;12.88;;
55684;SDS011;41883;49.544;8.646;2022-12-16T17:23:24;24.10;;;12.68;;